Wetterstation Vordersexau
Wetterdaten: Woche 31.10.16 - 06.11.16 (KW44)
Datum Zeit Temp. A. Feuchte A. Luftdruck Regen Wind Richtung Taupunkt Windchill Windben
31.10.2016 01:00 4,5 C 76 % 1024,6 hPa 0,0 l/m 0,0 km/h W-NW 0,6 C 4,5 C 0,0 km/h
31.10.2016 08:00 7,5 C 79 % 1024,5 hPa 0,0 l/m 0,0 km/h N-NW 4,1 C 7,5 C 0,0 km/h
31.10.2016 09:00 7,4 C 81 % 1024,1 hPa 0,0 l/m 0,0 km/h SW 4,4 C 7,4 C 0,0 km/h
31.10.2016 10:00 7,2 C 82 % 1023,7 hPa 0,0 l/m 0,0 km/h W 4,3 C 7,2 C 0,0 km/h
31.10.2016 11:00 7,3 C 82 % 1023,7 hPa 0,0 l/m 0,0 km/h S 4,4 C 7,3 C 0,0 km/h
31.10.2016 12:00 7,3 C 82 % 1023,7 hPa 0,0 l/m 0,0 km/h S 4,4 C 7,3 C 0,0 km/h
31.10.2016 13:00 7,1 C 82 % 1023,6 hPa 0,0 l/m 0,0 km/h SO 4,2 C 7,1 C 0,0 km/h
31.10.2016 14:00 6,8 C 81 % 1023,7 hPa 0,0 l/m 0,0 km/h O-SO 3,8 C 6,8 C 0,0 km/h
31.10.2016 15:00 6,3 C 80 % 1024,0 hPa 0,0 l/m 0,0 km/h O 3,1 C 6,3 C 0,0 km/h
31.10.2016 16:00 5,8 C 80 % 1024,0 hPa 0,0 l/m 0,0 km/h O 2,6 C 5,8 C 0,0 km/h
31.10.2016 17:00 5,3 C 80 % 1024,0 hPa 0,0 l/m 0,0 km/h O 2,1 C 5,3 C 0,0 km/h
31.10.2016 18:00 4,1 C 80 % 1024,0 hPa 0,0 l/m 0,0 km/h O 1,0 C 4,1 C 0,0 km/h
31.10.2016 19:00 2,6 C 80 % 1023,7 hPa 0,0 l/m 0,0 km/h O -0,5 C 2,6 C 0,0 km/h
31.10.2016 20:00 2,4 C 79 % 1023,1 hPa 0,0 l/m 0,0 km/h O -0,9 C 2,4 C 0,0 km/h
31.10.2016 21:00 2,5 C 78 % 1022,6 hPa 0,0 l/m 0,0 km/h O -0,9 C 2,5 C 0,0 km/h
31.10.2016 22:00 2,5 C 77 % 1022,1 hPa 0,0 l/m 0,0 km/h O -1,1 C 2,5 C 0,0 km/h
31.10.2016 23:00 2,1 C 77 % 1021,8 hPa 0,0 l/m 0,0 km/h O -1,5 C 2,1 C 0,0 km/h
01.11.2016 00:00 2,4 C 79 % 1023,1 hPa 0,0 l/m 0,0 km/h O -0,9 C 2,4 C 0,0 km/h
01.11.2016 01:00 2,5 C 78 % 1022,6 hPa 0,0 l/m 0,0 km/h O -0,9 C 2,5 C 0,0 km/h
01.11.2016 02:00 2,5 C 77 % 1022,1 hPa 0,0 l/m 0,0 km/h O -1,1 C 2,5 C 0,0 km/h
01.11.2016 03:00 4,4 C 73 % 1021,3 hPa 0,0 l/m 0,0 km/h O -0,1 C 4,4 C 0,0 km/h
01.11.2016 04:00 12,4 C 83 % 1020,2 hPa 0,0 l/m 0,0 km/h W-SW 9,6 C 12,4 C 0,0 km/h
01.11.2016 05:00 15,9 C 73 % 1019,8 hPa 0,0 l/m 0,0 km/h W-SW 11,1 C 15,9 C 0,0 km/h
01.11.2016 06:00 17,6 C 69 % 1019,0 hPa 0,0 l/m 0,0 km/h W-SW 11,8 C 17,6 C 0,0 km/h
01.11.2016 07:00 19,6 C 62 % 1017,9 hPa 0,0 l/m 0,0 km/h W-SW 12,1 C 19,6 C 0,0 km/h
01.11.2016 08:00 22,1 C 55 % 1016,9 hPa 0,0 l/m 0,0 km/h W 12,6 C 22,1 C 0,0 km/h
01.11.2016 09:00 22,6 C 48 % 1016,4 hPa 0,0 l/m 6,5 km/h W-SW 11,0 C 22,6 C 3,6 km/h
01.11.2016 10:00 20,1 C 53 % 1015,9 hPa 0,0 l/m 0,0 km/h S 10,2 C 20,1 C 0,0 km/h
01.11.2016 11:00 15,8 C 60 % 1015,8 hPa 0,0 l/m 0,0 km/h NO 8,1 C 15,8 C 0,0 km/h
01.11.2016 12:00 10,9 C 77 % 1016,1 hPa 0,0 l/m 0,0 km/h N 7,0 C 10,9 C 0,0 km/h
01.11.2016 13:00 9,4 C 83 % 1016,2 hPa 0,0 l/m 0,0 km/h N-NO 6,7 C 9,4 C 0,0 km/h
01.11.2016 14:00 8,1 C 84 % 1016,3 hPa 0,0 l/m 0,0 km/h N-NO 5,6 C 8,1 C 0,0 km/h
01.11.2016 15:00 7,1 C 85 % 1016,6 hPa 0,0 l/m 0,0 km/h NO 4,8 C 7,1 C 0,0 km/h
01.11.2016 16:00 6,5 C 85 % 1016,5 hPa 0,0 l/m 0,0 km/h NO 4,2 C 6,5 C 0,0 km/h
01.11.2016 17:00 5,9 C 84 % 1016,5 hPa 0,0 l/m 0,0 km/h O-SO 3,4 C 5,9 C 0,0 km/h
01.11.2016 18:00 6,4 C 83 % 1016,7 hPa 0,0 l/m 0,0 km/h O-SO 3,7 C 6,4 C 0,0 km/h
01.11.2016 19:00 7,6 C 82 % 1016,5 hPa 0,0 l/m 0,0 km/h NO 4,7 C 7,6 C 0,0 km/h
01.11.2016 20:00 8,3 C 80 % 1016,7 hPa 0,0 l/m 0,0 km/h O-NO 5,1 C 8,3 C 0,0 km/h
01.11.2016 21:00 8,9 C 80 % 1016,5 hPa 0,0 l/m 0,0 km/h NO 5,6 C 8,9 C 0,0 km/h
01.11.2016 22:00 8,9 C 79 % 1016,6 hPa 0,0 l/m 0,0 km/h NO 5,5 C 8,9 C 0,0 km/h
01.11.2016 23:00 9,1 C 79 % 1016,4 hPa 0,0 l/m 0,0 km/h S-SW 5,7 C 9,1 C 0,0 km/h
02.11.2016 00:00 9,5 C 80 % 1016,6 hPa 0,0 l/m 0,0 km/h S-SW 6,2 C 9,5 C 0,0 km/h
02.11.2016 01:00 9,8 C 84 % 1016,9 hPa 0,0 l/m 0,0 km/h NO 7,2 C 9,8 C 0,0 km/h
02.11.2016 02:00 8,3 C 80 % 1016,7 hPa 0,0 l/m 0,0 km/h O-NO 5,1 C 8,3 C 0,0 km/h
02.11.2016 03:00 8,9 C 80 % 1016,5 hPa 0,0 l/m 0,0 km/h NO 5,6 C 8,9 C 0,0 km/h
02.11.2016 04:00 8,9 C 79 % 1016,6 hPa 0,0 l/m 0,0 km/h NO 5,5 C 8,9 C 0,0 km/h
02.11.2016 05:00 9,1 C 79 % 1016,4 hPa 0,0 l/m 0,0 km/h S-SW 5,7 C 9,1 C 0,0 km/h
02.11.2016 06:00 9,5 C 80 % 1016,6 hPa 0,0 l/m 0,0 km/h W 6,2 C 9,5 C 0,0 km/h
02.11.2016 07:00 9,8 C 84 % 1016,9 hPa 0,0 l/m 0,0 km/h W-NW 7,2 C 9,8 C 0,0 km/h
02.11.2016 08:00 9,9 C 85 % 1017,4 hPa 0,0 l/m 0,0 km/h NW 7,5 C 9,9 C 0,0 km/h
02.11.2016 09:00 9,8 C 85 % 1017,7 hPa 0,0 l/m 0,0 km/h W-SW 7,4 C 9,8 C 0,0 km/h
02.11.2016 10:00 9,4 C 85 % 1017,8 hPa 0,0 l/m 7,1 km/h W 7,0 C 8,9 C 4,0 km/h
02.11.2016 11:00 9,1 C 85 % 1018,0 hPa 0,0 l/m 0,0 km/h W 6,7 C 9,1 C 0,0 km/h
02.11.2016 12:00 9,3 C 85 % 1017,4 hPa 0,0 l/m 0,0 km/h W 6,9 C 9,3 C 0,0 km/h
02.11.2016 13:00 9,6 C 85 % 1017,1 hPa 0,0 l/m 0,0 km/h W 7,2 C 9,6 C 0,0 km/h
02.11.2016 14:00 9,4 C 85 % 1017,1 hPa 0,0 l/m 0,0 km/h W 7,0 C 9,4 C 0,0 km/h
02.11.2016 15:00 9,3 C 85 % 1017,2 hPa 0,0 l/m 0,0 km/h W 6,9 C 9,3 C 0,0 km/h
02.11.2016 16:00 9,2 C 85 % 1017,5 hPa 0,0 l/m 0,0 km/h S-SW 6,8 C 9,2 C 0,0 km/h
02.11.2016 17:00 8,4 C 86 % 1017,5 hPa 0,0 l/m 0,0 km/h S-SW 6,2 C 8,4 C 0,0 km/h
02.11.2016 18:00 7,5 C 85 % 1018,0 hPa 0,0 l/m 0,0 km/h S-SW 5,1 C 7,5 C 0,0 km/h
02.11.2016 19:00 5,9 C 86 % 1018,3 hPa 0,0 l/m 0,0 km/h S 3,7 C 5,9 C 0,0 km/h
02.11.2016 20:00 4,4 C 85 % 1018,5 hPa 0,0 l/m 0,0 km/h S 2,1 C 4,4 C 0,0 km/h
02.11.2016 21:00 3,7 C 85 % 1018,5 hPa 0,0 l/m 0,0 km/h S 1,4 C 3,7 C 0,0 km/h
02.11.2016 22:00 2,9 C 85 % 1018,7 hPa 0,0 l/m 0,0 km/h SO 0,6 C 2,9 C 0,0 km/h
02.11.2016 23:00 2,1 C 85 % 1018,6 hPa 0,0 l/m 0,0 km/h O-SO -0,2 C 2,1 C 0,0 km/h
03.11.2016 00:00 1,6 C 84 % 1019,3 hPa 0,0 l/m 0,0 km/h O-SO -0,8 C 1,6 C 0,0 km/h
03.11.2016 01:00 1,1 C 83 % 1019,3 hPa 0,0 l/m 0,0 km/h O-SO -1,5 C 1,1 C 0,0 km/h
03.11.2016 02:00 1,0 C 82 % 1019,4 hPa 0,0 l/m 0,0 km/h O-SO -1,7 C 1,0 C 0,0 km/h
03.11.2016 03:00 0,1 C 83 % 1019,6 hPa 0,0 l/m 0,0 km/h O-SO -2,4 C 0,1 C 0,0 km/h
03.11.2016 04:00 -0,3 C 82 % 1019,4 hPa 0,0 l/m 0,0 km/h O-SO -3,0 C -0,3 C 0,0 km/h
03.11.2016 05:00 -0,5 C 82 % 1019,6 hPa 0,0 l/m 0,0 km/h O-SO -3,2 C -0,5 C 0,0 km/h
03.11.2016 06:00 -0,2 C 81 % 1019,8 hPa 0,0 l/m 0,0 km/h O-SO -3,1 C -0,2 C 0,0 km/h
03.11.2016 07:00 -0,2 C 80 % 1020,2 hPa 0,0 l/m 0,0 km/h SO -3,2 C -0,2 C 0,0 km/h
03.11.2016 08:00 0,4 C 78 % 1020,2 hPa 0,0 l/m 1,3 km/h SO -3,0 C 0,4 C 0,7 km/h
03.11.2016 09:00 6,4 C 83 % 1020,4 hPa 0,0 l/m 0,0 km/h SO 3,7 C 6,4 C 0,0 km/h
03.11.2016 10:00 11,5 C 80 % 1020,6 hPa 0,0 l/m 3,2 km/h W-NW 8,2 C 11,5 C 1,8 km/h
03.11.2016 11:00 14,9 C 63 % 1020,6 hPa 0,0 l/m 1,3 km/h N-NW 7,9 C 14,9 C 0,7 km/h
03.11.2016 12:00 15,2 C 59 % 1019,8 hPa 0,0 l/m 0,0 km/h W 7,2 C 15,2 C 0,0 km/h
03.11.2016 13:00 14,9 C 57 % 1019,0 hPa 0,0 l/m 2,6 km/h W-NW 6,5 C 14,9 C 1,4 km/h
03.11.2016 14:00 17,3 C 51 % 1018,3 hPa 0,0 l/m 0,0 km/h N-NW 7,1 C 17,3 C 0,0 km/h
03.11.2016 15:00 18,1 C 47 % 1017,8 hPa 0,0 l/m 0,0 km/h W-NW 6,6 C 18,1 C 0,0 km/h
03.11.2016 16:00 13,5 C 54 % 1017,9 hPa 0,0 l/m 0,0 km/h W-NW 4,4 C 13,5 C 0,0 km/h
03.11.2016 17:00 8,5 C 64 % 1018,0 hPa 0,0 l/m 0,0 km/h W-NW 2,1 C 8,5 C 0,0 km/h
03.11.2016 18:00 4,1 C 75 % 1018,4 hPa 0,0 l/m 0,0 km/h W-NW 0,1 C 4,1 C 0,0 km/h
03.11.2016 19:00 2,8 C 80 % 1018,5 hPa 0,0 l/m 0,0 km/h W-NW -0,3 C 2,8 C 0,0 km/h
03.11.2016 20:00 2,0 C 83 % 1018,5 hPa 0,0 l/m 0,0 km/h W-NW -0,6 C 2,0 C 0,0 km/h
03.11.2016 21:00 1,6 C 84 % 1018,2 hPa 0,0 l/m 0,0 km/h W-NW -0,8 C 1,6 C 0,0 km/h
03.11.2016 22:00 1,2 C 85 % 1018,0 hPa 0,0 l/m 0,0 km/h W-NW -1,0 C 1,2 C 0,0 km/h
03.11.2016 23:00 0,4 C 86 % 1017,9 hPa 0,0 l/m 0,0 km/h W-NW -1,7 C 0,4 C 0,0 km/h
04.11.2016 00:00 -0,4 C 86 % 1017,5 hPa 0,0 l/m 0,0 km/h W-NW -2,4 C -0,4 C 0,0 km/h
04.11.2016 01:00 -1,1 C 86 % 1017,5 hPa 0,0 l/m 0,0 km/h W-NW -3,1 C -1,1 C 0,0 km/h
04.11.2016 02:00 -1,1 C 86 % 1016,9 hPa 0,0 l/m 0,0 km/h W-NW -3,1 C -1,1 C 0,0 km/h
04.11.2016 03:00 -1,1 C 86 % 1016,3 hPa 0,0 l/m 0,0 km/h W-NW -3,1 C -1,1 C 0,0 km/h
04.11.2016 04:00 -1,4 C 85 % 1015,8 hPa 0,0 l/m 0,0 km/h W-NW -3,6 C -1,4 C 0,0 km/h
04.11.2016 05:00 -1,0 C 85 % 1015,7 hPa 0,0 l/m 0,0 km/h SO -3,2 C -1,0 C 0,0 km/h
04.11.2016 06:00 -0,7 C 84 % 1014,9 hPa 0,0 l/m 0,0 km/h SO -3,1 C -0,7 C 0,0 km/h
04.11.2016 07:00 -1,2 C 84 % 1014,5 hPa 0,0 l/m 0,0 km/h SO -3,5 C -1,2 C 0,0 km/h
04.11.2016 08:00 -0,7 C 83 % 1015,2 hPa 0,0 l/m 0,0 km/h NO -3,2 C -0,7 C 0,0 km/h
04.11.2016 09:00 5,3 C 86 % 1014,6 hPa 0,0 l/m 0,0 km/h N 3,2 C 5,3 C 0,0 km/h
04.11.2016 10:00 10,4 C 74 % 1013,9 hPa 0,0 l/m 0,0 km/h W-SW 6,0 C 10,4 C 0,0 km/h
04.11.2016 11:00 14,2 C 63 % 1013,4 hPa 0,0 l/m 0,0 km/h W 7,3 C 14,2 C 0,0 km/h
04.11.2016 12:00 15,1 C 58 % 1012,7 hPa 0,0 l/m 0,0 km/h W-NW 6,9 C 15,1 C 0,0 km/h
04.11.2016 13:00 13,4 C 62 % 1011,6 hPa 0,0 l/m 0,0 km/h W-NW 6,3 C 13,4 C 0,0 km/h
04.11.2016 14:00 14,0 C 62 % 1010,7 hPa 0,0 l/m 0,0 km/h W-NW 6,8 C 14,0 C 0,0 km/h
04.11.2016 15:00 13,2 C 66 % 1009,8 hPa 0,0 l/m 0,0 km/h S 7,0 C 13,2 C 0,0 km/h
04.11.2016 16:00 12,8 C 67 % 1009,3 hPa 0,0 l/m 0,0 km/h W-NW 6,8 C 12,8 C 0,0 km/h
04.11.2016 17:00 10,9 C 73 % 1009,2 hPa 0,0 l/m 0,0 km/h O-NO 6,3 C 10,9 C 0,0 km/h
04.11.2016 18:00 9,0 C 81 % 1008,9 hPa 0,0 l/m 0,0 km/h N-NO 5,9 C 9,0 C 0,0 km/h
04.11.2016 19:00 8,5 C 84 % 1008,6 hPa 0,0 l/m 0,0 km/h N-NO 6,0 C 8,5 C 0,0 km/h
04.11.2016 20:00 7,1 C 85 % 1008,0 hPa 0,0 l/m 0,0 km/h O-SO 4,8 C 7,1 C 0,0 km/h
04.11.2016 21:00 6,9 C 85 % 1007,4 hPa 0,0 l/m 0,0 km/h O-SO 4,6 C 6,9 C 0,0 km/h
04.11.2016 22:00 7,3 C 84 % 1006,7 hPa 0,0 l/m 0,0 km/h O-SO 4,8 C 7,3 C 0,0 km/h
04.11.2016 23:00 6,9 C 85 % 1006,8 hPa 0,0 l/m 0,0 km/h N-NO 4,6 C 6,9 C 0,0 km/h
05.11.2016 00:00 7,4 C 84 % 1006,6 hPa 0,0 l/m 0,0 km/h N-NO 4,9 C 7,4 C 0,0 km/h
05.11.2016 01:00 8,4 C 82 % 1005,9 hPa 1,0 l/m 0,0 km/h N-NO 5,5 C 8,4 C 0,0 km/h
05.11.2016 02:00 9,2 C 81 % 1004,9 hPa 0,0 l/m 0,0 km/h O-SO 6,1 C 9,2 C 0,0 km/h
05.11.2016 03:00 9,6 C 80 % 1004,6 hPa 1,0 l/m 0,0 km/h SO 6,3 C 9,6 C 0,0 km/h
05.11.2016 04:00 10,6 C 77 % 1003,9 hPa 0,5 l/m 0,0 km/h NO 6,7 C 10,6 C 0,0 km/h
05.11.2016 05:00 10,2 C 79 % 1003,1 hPa 0,0 l/m 0,0 km/h N 6,7 C 10,2 C 0,0 km/h
05.11.2016 06:00 10,2 C 79 % 1002,1 hPa 0,0 l/m 0,0 km/h N 6,7 C 10,2 C 0,0 km/h
05.11.2016 07:00 10,1 C 78 % 1001,1 hPa 0,0 l/m 0,0 km/h N 6,4 C 10,1 C 0,0 km/h
05.11.2016 08:00 10,3 C 78 % 999,9 hPa 0,5 l/m 0,0 km/h SO 6,6 C 10,3 C 0,0 km/h
05.11.2016 09:00 13,0 C 85 % 998,9 hPa 0,0 l/m 0,0 km/h S 10,5 C 13,0 C 0,0 km/h
05.11.2016 10:00 12,3 C 83 % 998,3 hPa 0,0 l/m 0,0 km/h S-SO 9,5 C 12,3 C 0,0 km/h
05.11.2016 11:00 13,8 C 82 % 997,6 hPa 0,0 l/m 5,2 km/h W-NW 10,8 C 13,8 C 2,9 km/h
05.11.2016 12:00 12,9 C 83 % 997,8 hPa 0,5 l/m 0,0 km/h S-SO 10,1 C 12,9 C 0,0 km/h
05.11.2016 13:00 12,4 C 84 % 997,5 hPa 1,6 l/m 0,0 km/h N 9,8 C 12,4 C 0,0 km/h
05.11.2016 14:00 10,9 C 85 % 997,5 hPa 0,0 l/m 0,0 km/h O-NO 8,5 C 10,9 C 0,0 km/h
05.11.2016 15:00 10,1 C 85 % 998,4 hPa 0,5 l/m 0,0 km/h S-SO 7,7 C 10,1 C 0,0 km/h
05.11.2016 16:00 9,6 C 85 % 998,9 hPa 1,0 l/m 0,0 km/h W-SW 7,2 C 9,6 C 0,0 km/h
05.11.2016 17:00 9,0 C 83 % 999,1 hPa 1,6 l/m 0,0 km/h W-SW 6,3 C 9,0 C 0,0 km/h
05.11.2016 18:00 8,7 C 83 % 999,3 hPa 0,5 l/m 0,0 km/h N 6,0 C 8,7 C 0,0 km/h
05.11.2016 19:00 8,6 C 82 % 999,6 hPa 0,0 l/m 0,0 km/h N 5,7 C 8,6 C 0,0 km/h
05.11.2016 20:00 8,4 C 82 % 1000,3 hPa 0,0 l/m 0,0 km/h N 5,5 C 8,4 C 0,0 km/h
05.11.2016 21:00 8,1 C 81 % 1000,1 hPa 0,5 l/m 0,0 km/h N 5,0 C 8,1 C 0,0 km/h
05.11.2016 22:00 7,5 C 80 % 1000,3 hPa 1,0 l/m 0,0 km/h N-NO 4,3 C 7,5 C 0,0 km/h
05.11.2016 23:00 6,9 C 82 % 1000,7 hPa 0,5 l/m 0,0 km/h N-NO 4,0 C 6,9 C 0,0 km/h
06.11.2016 00:00 6,4 C 82 % 1001,0 hPa 0,5 l/m 0,0 km/h N-NO 3,6 C 6,4 C 0,0 km/h
06.11.2016 01:00 6,4 C 81 % 1000,8 hPa 1,0 l/m 0,0 km/h N-NO 3,4 C 6,4 C 0,0 km/h
06.11.2016 02:00 6,4 C 81 % 1001,0 hPa 0,0 l/m 0,0 km/h N-NO 3,4 C 6,4 C 0,0 km/h
06.11.2016 03:00 6,2 C 81 % 1000,7 hPa 0,5 l/m 0,0 km/h N-NO 3,2 C 6,2 C 0,0 km/h
06.11.2016 04:00 5,8 C 81 % 1000,8 hPa 0,0 l/m 0,0 km/h O-SO 2,8 C 5,8 C 0,0 km/h
06.11.2016 05:00 5,6 C 81 % 1000,7 hPa 0,0 l/m 1,3 km/h O-SO 2,6 C 5,6 C 0,7 km/h
06.11.2016 06:00 5,3 C 79 % 1000,3 hPa 0,0 l/m 0,0 km/h O-SO 2,0 C 5,3 C 0,0 km/h
06.11.2016 07:00 4,9 C 79 % 1000,2 hPa 0,0 l/m 0,0 km/h O-SO 1,6 C 4,9 C 0,0 km/h
06.11.2016 08:00 5,2 C 79 % 1001,0 hPa 0,0 l/m 0,0 km/h W-SW 1,9 C 5,2 C 0,0 km/h
06.11.2016 09:00 5,6 C 78 % 1000,8 hPa 0,0 l/m 0,0 km/h SW 2,1 C 5,6 C 0,0 km/h
06.11.2016 10:00 6,4 C 78 % 1001,2 hPa 0,0 l/m 2,6 km/h W 2,8 C 6,4 C 1,4 km/h
06.11.2016 11:00 7,6 C 85 % 1000,8 hPa 0,0 l/m 2,6 km/h SW 5,2 C 7,6 C 1,4 km/h
06.11.2016 12:00 10,3 C 83 % 1000,6 hPa 0,0 l/m 0,0 km/h S-SO 7,5 C 10,3 C 0,0 km/h
06.11.2016 13:00 4,7 C 84 % 1001,0 hPa 1,6 l/m 5,8 km/h SO 2,2 C 4,7 C 3,2 km/h
06.11.2016 14:00 5,0 C 86 % 1000,7 hPa 0,0 l/m 0,0 km/h O-SO 2,9 C 5,0 C 0,0 km/h
06.11.2016 15:00 6,4 C 85 % 1000,8 hPa 0,0 l/m 0,0 km/h S 4,1 C 6,4 C 0,0 km/h
06.11.2016 16:00 5,1 C 86 % 1001,2 hPa 0,5 l/m 8,4 km/h O-SO 3,0 C 3,4 C 4,7 km/h
06.11.2016 17:00 4,1 C 86 % 1001,4 hPa 0,0 l/m 0,0 km/h O 2,0 C 4,1 C 0,0 km/h
06.11.2016 18:00 4,1 C 85 % 1001,5 hPa 0,0 l/m 0,0 km/h O 1,8 C 4,1 C 0,0 km/h
06.11.2016 19:00 4,2 C 85 % 1001,6 hPa 0,5 l/m 0,0 km/h O 1,9 C 4,2 C 0,0 km/h
06.11.2016 20:00 4,3 C 85 % 1001,9 hPa 0,0 l/m 0,0 km/h SO 2,0 C 4,3 C 0,0 km/h
06.11.2016 21:00 3,5 C 85 % 1002,3 hPa 0,0 l/m 0,0 km/h SO 1,2 C 3,5 C 0,0 km/h
06.11.2016 22:00 3,4 C 84 % 1002,5 hPa 0,0 l/m 0,0 km/h SO 1,0 C 3,4 C 0,0 km/h
06.11.2016 23:00 2,8 C 84 % 1002,6 hPa 0,0 l/m 0,0 km/h SO 0,4 C 2,8 C 0,0 km/h
Min-Datum _ 04.11.16 03.11.16 05.11.16 - 31.10.16 - 04.11.16 04.11.16 31.10.16
_ Min-Zeit 04:10 15:10 13:10 - 01:09 - 04:10 04:10 01:09
Minimum _ -1,4 C 47 % 997,5 hPa - 0,0 km/h - -3,6 C -1,4 C 0,0 km/h
Max-Datum _ 01.11.16 02.11.16 31.10.16 05.11.16 06.11.16 - 01.11.16 01.11.16 06.11.16
_ Max-Zeit 09:10 17:10 01:09 13:10 16:10 - 08:10 09:10 16:10
Maximum _ 22,6 C 86 % 1024,6 hPa 1,6 l/m 8,4 km/h
O-SO
- 12,6 C 22,6 C 4,7 km/h
O-SO
Durchschnitt _ 7,4 C 79 % 1012,7 hPa #15,5 l/m 0,3 km/h W-NW 3,9 C 7,4 C 0,2 km/h
www.sexauwetter.de